sensor_id;sensor_type;location;lat;lon;timestamp;temperature;humidity
2260;DHT22;333;48.800;9.530;2024-03-25T00:01:48;5.70;99.60
2260;DHT22;333;48.800;9.530;2024-03-25T00:04:14;5.70;99.60
2260;DHT22;333;48.800;9.530;2024-03-25T00:06:41;5.70;99.60
2260;DHT22;333;48.800;9.530;2024-03-25T00:09:07;5.70;99.60
2260;DHT22;333;48.800;9.530;2024-03-25T00:11:39;5.70;99.60
2260;DHT22;333;48.800;9.530;2024-03-25T00:14:05;5.70;99.60
2260;DHT22;333;48.800;9.530;2024-03-25T00:16:32;5.80;99.60
2260;DHT22;333;48.800;9.530;2024-03-25T00:18:59;5.70;99.60
2260;DHT22;333;48.800;9.530;2024-03-25T00:21:26;5.70;99.60
2260;DHT22;333;48.800;9.530;2024-03-25T00:23:52;5.70;99.60
2260;DHT22;333;48.800;9.530;2024-03-25T00:26:22;5.70;99.60
2260;DHT22;333;48.800;9.530;2024-03-25T00:28:48;5.80;99.60
2260;DHT22;333;48.800;9.530;2024-03-25T00:31:15;5.80;99.60
2260;DHT22;333;48.800;9.530;2024-03-25T00:33:40;5.70;99.60
2260;DHT22;333;48.800;9.530;2024-03-25T00:36:09;5.80;99.60
2260;DHT22;333;48.800;9.530;2024-03-25T00:38:35;5.70;99.60
2260;DHT22;333;48.800;9.530;2024-03-25T00:41:02;5.80;99.60
2260;DHT22;333;48.800;9.530;2024-03-25T00:43:27;5.80;99.60
2260;DHT22;333;48.800;9.530;2024-03-25T00:45:54;5.90;99.60
2260;DHT22;333;48.800;9.530;2024-03-25T00:48:20;5.90;99.60
2260;DHT22;333;48.800;9.530;2024-03-25T00:50:48;5.80;99.60
2260;DHT22;333;48.800;9.530;2024-03-25T00:53:15;5.80;99.60
2260;DHT22;333;48.800;9.530;2024-03-25T00:55:43;5.90;99.60
2260;DHT22;333;48.800;9.530;2024-03-25T00:58:09;5.80;99.60
2260;DHT22;333;48.800;9.530;2024-03-25T01:00:36;5.80;99.60
2260;DHT22;333;48.800;9.530;2024-03-25T01:03:02;5.80;99.60
2260;DHT22;333;48.800;9.530;2024-03-25T01:05:29;5.80;99.60
2260;DHT22;333;48.800;9.530;2024-03-25T01:07:55;5.70;99.60
2260;DHT22;333;48.800;9.530;2024-03-25T01:10:23;5.70;99.60
2260;DHT22;333;48.800;9.530;2024-03-25T01:12:49;5.70;99.60
2260;DHT22;333;48.800;9.530;2024-03-25T01:15:16;5.70;99.60
2260;DHT22;333;48.800;9.530;2024-03-25T01:17:42;5.70;99.60
2260;DHT22;333;48.800;9.530;2024-03-25T01:20:10;5.70;99.60
2260;DHT22;333;48.800;9.530;2024-03-25T01:22:36;5.60;99.60
2260;DHT22;333;48.800;9.530;2024-03-25T01:25:03;5.60;99.60
2260;DHT22;333;48.800;9.530;2024-03-25T01:27:30;5.60;99.60
2260;DHT22;333;48.800;9.530;2024-03-25T01:29:57;5.60;99.60
2260;DHT22;333;48.800;9.530;2024-03-25T01:32:23;5.60;99.60
2260;DHT22;333;48.800;9.530;2024-03-25T01:34:50;5.60;99.60
2260;DHT22;333;48.800;9.530;2024-03-25T01:37:16;5.50;99.60
2260;DHT22;333;48.800;9.530;2024-03-25T01:39:43;5.60;99.60
2260;DHT22;333;48.800;9.530;2024-03-25T01:42:09;5.50;99.60
2260;DHT22;333;48.800;9.530;2024-03-25T01:44:37;5.40;99.60
2260;DHT22;333;48.800;9.530;2024-03-25T01:47:03;5.40;99.60
2260;DHT22;333;48.800;9.530;2024-03-25T01:49:30;5.40;99.60
2260;DHT22;333;48.800;9.530;2024-03-25T01:51:58;5.40;99.60
2260;DHT22;333;48.800;9.530;2024-03-25T01:54:25;5.40;99.60
2260;DHT22;333;48.800;9.530;2024-03-25T01:56:51;5.40;99.60
2260;DHT22;333;48.800;9.530;2024-03-25T01:59:20;5.40;99.60
2260;DHT22;333;48.800;9.530;2024-03-25T02:01:48;5.50;99.60
2260;DHT22;333;48.800;9.530;2024-03-25T02:04:16;5.50;99.60
2260;DHT22;333;48.800;9.530;2024-03-25T02:06:42;5.50;99.60
2260;DHT22;333;48.800;9.530;2024-03-25T02:09:12;5.50;99.60
2260;DHT22;333;48.800;9.530;2024-03-25T02:11:39;5.50;99.60
2260;DHT22;333;48.800;9.530;2024-03-25T02:14:07;5.40;99.60
2260;DHT22;333;48.800;9.530;2024-03-25T02:16:34;5.50;99.60
2260;DHT22;333;48.800;9.530;2024-03-25T02:19:02;5.50;99.60
2260;DHT22;333;48.800;9.530;2024-03-25T02:21:28;5.50;99.60
2260;DHT22;333;48.800;9.530;2024-03-25T02:23:56;5.40;99.60
2260;DHT22;333;48.800;9.530;2024-03-25T02:26:26;5.50;99.60
2260;DHT22;333;48.800;9.530;2024-03-25T02:28:53;5.50;99.60
2260;DHT22;333;48.800;9.530;2024-03-25T02:31:19;5.50;99.60
2260;DHT22;333;48.800;9.530;2024-03-25T02:33:46;5.50;99.60
2260;DHT22;333;48.800;9.530;2024-03-25T02:36:11;5.50;99.60
2260;DHT22;333;48.800;9.530;2024-03-25T02:38:38;5.50;99.60
2260;DHT22;333;48.800;9.530;2024-03-25T02:41:04;5.50;99.60
2260;DHT22;333;48.800;9.530;2024-03-25T02:43:33;5.40;99.60
2260;DHT22;333;48.800;9.530;2024-03-25T02:45:59;5.50;99.60
2260;DHT22;333;48.800;9.530;2024-03-25T02:48:26;5.60;99.60
2260;DHT22;333;48.800;9.530;2024-03-25T02:50:52;5.50;99.60
2260;DHT22;333;48.800;9.530;2024-03-25T02:53:19;5.60;99.60
2260;DHT22;333;48.800;9.530;2024-03-25T02:55:45;5.50;99.60
2260;DHT22;333;48.800;9.530;2024-03-25T02:58:12;5.50;99.60
2260;DHT22;333;48.800;9.530;2024-03-25T03:00:39;5.50;99.60
2260;DHT22;333;48.800;9.530;2024-03-25T03:03:06;5.60;99.60
2260;DHT22;333;48.800;9.530;2024-03-25T03:05:32;5.60;99.60
2260;DHT22;333;48.800;9.530;2024-03-25T03:08:00;5.60;99.60
2260;DHT22;333;48.800;9.530;2024-03-25T03:10:26;5.70;99.60
2260;DHT22;333;48.800;9.530;2024-03-25T03:12:53;5.60;99.60
2260;DHT22;333;48.800;9.530;2024-03-25T03:15:19;5.70;99.60
2260;DHT22;333;48.800;9.530;2024-03-25T03:17:47;5.70;99.60
2260;DHT22;333;48.800;9.530;2024-03-25T03:20:13;5.70;99.60
2260;DHT22;333;48.800;9.530;2024-03-25T03:22:40;5.60;99.60
2260;DHT22;333;48.800;9.530;2024-03-25T03:25:06;5.60;99.60
2260;DHT22;333;48.800;9.530;2024-03-25T03:27:33;5.60;99.60
2260;DHT22;333;48.800;9.530;2024-03-25T03:29:59;5.60;99.60
2260;DHT22;333;48.800;9.530;2024-03-25T03:32:26;5.60;99.60
2260;DHT22;333;48.800;9.530;2024-03-25T03:34:54;5.60;99.60
2260;DHT22;333;48.800;9.530;2024-03-25T03:37:21;5.50;99.60
2260;DHT22;333;48.800;9.530;2024-03-25T03:39:46;5.60;99.60
2260;DHT22;333;48.800;9.530;2024-03-25T03:42:13;5.50;99.60
2260;DHT22;333;48.800;9.530;2024-03-25T03:44:39;5.50;99.60
2260;DHT22;333;48.800;9.530;2024-03-25T03:47:06;5.40;99.60
2260;DHT22;333;48.800;9.530;2024-03-25T03:49:32;5.40;99.60
2260;DHT22;333;48.800;9.530;2024-03-25T03:52:00;5.40;99.60
2260;DHT22;333;48.800;9.530;2024-03-25T03:54:26;5.30;99.60
2260;DHT22;333;48.800;9.530;2024-03-25T03:56:54;5.30;99.60
2260;DHT22;333;48.800;9.530;2024-03-25T03:59:20;5.30;99.60
2260;DHT22;333;48.800;9.530;2024-03-25T04:01:46;5.20;99.60
2260;DHT22;333;48.800;9.530;2024-03-25T04:04:12;5.20;99.60
2260;DHT22;333;48.800;9.530;2024-03-25T04:06:40;5.20;99.60
2260;DHT22;333;48.800;9.530;2024-03-25T04:09:07;5.10;99.60
2260;DHT22;333;48.800;9.530;2024-03-25T04:11:35;5.00;99.60
2260;DHT22;333;48.800;9.530;2024-03-25T04:14:01;5.00;99.60
2260;DHT22;333;48.800;9.530;2024-03-25T04:16:28;5.00;99.60
2260;DHT22;333;48.800;9.530;2024-03-25T04:18:56;5.00;99.60
2260;DHT22;333;48.800;9.530;2024-03-25T04:21:23;5.00;99.60
2260;DHT22;333;48.800;9.530;2024-03-25T04:23:49;5.10;99.60
2260;DHT22;333;48.800;9.530;2024-03-25T04:26:17;5.20;99.60
2260;DHT22;333;48.800;9.530;2024-03-25T04:28:44;5.20;99.60
2260;DHT22;333;48.800;9.530;2024-03-25T04:31:10;5.20;99.60
2260;DHT22;333;48.800;9.530;2024-03-25T04:33:36;5.20;99.60
2260;DHT22;333;48.800;9.530;2024-03-25T04:36:03;5.20;99.60
2260;DHT22;333;48.800;9.530;2024-03-25T04:38:29;5.20;99.60
2260;DHT22;333;48.800;9.530;2024-03-25T04:40:55;5.10;99.60
2260;DHT22;333;48.800;9.530;2024-03-25T04:43:23;4.90;99.60
2260;DHT22;333;48.800;9.530;2024-03-25T04:45:49;4.90;99.60
2260;DHT22;333;48.800;9.530;2024-03-25T04:48:14;4.80;99.60
2260;DHT22;333;48.800;9.530;2024-03-25T04:50:40;4.70;99.60
2260;DHT22;333;48.800;9.530;2024-03-25T04:53:06;4.70;99.60
2260;DHT22;333;48.800;9.530;2024-03-25T04:55:32;4.60;99.60
2260;DHT22;333;48.800;9.530;2024-03-25T04:57:58;4.70;99.60
2260;DHT22;333;48.800;9.530;2024-03-25T05:00:26;4.70;99.60
2260;DHT22;333;48.800;9.530;2024-03-25T05:02:52;4.80;99.60
2260;DHT22;333;48.800;9.530;2024-03-25T05:05:18;4.90;99.60
2260;DHT22;333;48.800;9.530;2024-03-25T05:07:43;4.80;99.60
2260;DHT22;333;48.800;9.530;2024-03-25T05:10:09;4.80;99.60
2260;DHT22;333;48.800;9.530;2024-03-25T05:12:36;4.60;99.60
2260;DHT22;333;48.800;9.530;2024-03-25T05:15:02;4.60;99.60
2260;DHT22;333;48.800;9.530;2024-03-25T05:17:29;4.70;99.60
2260;DHT22;333;48.800;9.530;2024-03-25T05:19:55;4.50;99.60
2260;DHT22;333;48.800;9.530;2024-03-25T05:22:21;4.50;99.60
2260;DHT22;333;48.800;9.530;2024-03-25T05:24:47;4.60;99.60
2260;DHT22;333;48.800;9.530;2024-03-25T05:27:13;4.70;99.60
2260;DHT22;333;48.800;9.530;2024-03-25T05:29:39;4.80;99.60
2260;DHT22;333;48.800;9.530;2024-03-25T05:32:05;4.70;99.60
2260;DHT22;333;48.800;9.530;2024-03-25T05:34:33;4.80;99.60
2260;DHT22;333;48.800;9.530;2024-03-25T05:36:59;4.80;99.60
2260;DHT22;333;48.800;9.530;2024-03-25T05:39:25;4.90;99.60
2260;DHT22;333;48.800;9.530;2024-03-25T05:41:51;5.00;99.60
2260;DHT22;333;48.800;9.530;2024-03-25T05:44:17;5.10;99.60
2260;DHT22;333;48.800;9.530;2024-03-25T05:46:43;5.10;99.60
2260;DHT22;333;48.800;9.530;2024-03-25T05:49:09;5.10;99.60
2260;DHT22;333;48.800;9.530;2024-03-25T05:51:36;5.10;99.60
2260;DHT22;333;48.800;9.530;2024-03-25T05:54:02;5.20;99.60
2260;DHT22;333;48.800;9.530;2024-03-25T05:56:28;5.20;99.60
2260;DHT22;333;48.800;9.530;2024-03-25T05:58:56;5.20;99.60
2260;DHT22;333;48.800;9.530;2024-03-25T06:01:22;5.30;99.60
2260;DHT22;333;48.800;9.530;2024-03-25T06:03:48;5.30;99.60
2260;DHT22;333;48.800;9.530;2024-03-25T06:06:14;5.30;99.60
2260;DHT22;333;48.800;9.530;2024-03-25T06:08:41;5.40;99.60
2260;DHT22;333;48.800;9.530;2024-03-25T06:11:07;5.40;99.60
2260;DHT22;333;48.800;9.530;2024-03-25T06:13:33;5.40;99.60
2260;DHT22;333;48.800;9.530;2024-03-25T06:15:59;5.50;99.60
2260;DHT22;333;48.800;9.530;2024-03-25T06:18:25;5.50;99.60
2260;DHT22;333;48.800;9.530;2024-03-25T06:20:51;5.70;99.60
2260;DHT22;333;48.800;9.530;2024-03-25T06:23:23;5.80;99.60
2260;DHT22;333;48.800;9.530;2024-03-25T06:25:52;5.80;99.60
2260;DHT22;333;48.800;9.530;2024-03-25T06:28:18;5.90;99.60
2260;DHT22;333;48.800;9.530;2024-03-25T06:30:45;6.00;99.60
2260;DHT22;333;48.800;9.530;2024-03-25T06:33:29;6.10;99.60
2260;DHT22;333;48.800;9.530;2024-03-25T06:36:28;6.00;99.60
2260;DHT22;333;48.800;9.530;2024-03-25T06:38:54;5.90;99.60
2260;DHT22;333;48.800;9.530;2024-03-25T06:41:21;5.90;99.60
2260;DHT22;333;48.800;9.530;2024-03-25T06:43:47;5.90;99.60
2260;DHT22;333;48.800;9.530;2024-03-25T06:46:13;6.00;99.60
2260;DHT22;333;48.800;9.530;2024-03-25T06:48:39;6.00;99.60
2260;DHT22;333;48.800;9.530;2024-03-25T06:51:05;6.00;99.60
2260;DHT22;333;48.800;9.530;2024-03-25T06:53:31;5.90;99.60
2260;DHT22;333;48.800;9.530;2024-03-25T06:55:58;5.80;99.60
2260;DHT22;333;48.800;9.530;2024-03-25T06:58:26;5.90;99.60
2260;DHT22;333;48.800;9.530;2024-03-25T07:00:53;5.90;99.60
2260;DHT22;333;48.800;9.530;2024-03-25T07:03:20;5.80;99.60
2260;DHT22;333;48.800;9.530;2024-03-25T07:05:46;5.80;99.60
2260;DHT22;333;48.800;9.530;2024-03-25T07:08:12;5.90;99.60
2260;DHT22;333;48.800;9.530;2024-03-25T07:10:38;6.10;99.60
2260;DHT22;333;48.800;9.530;2024-03-25T07:13:07;6.10;99.60
2260;DHT22;333;48.800;9.530;2024-03-25T07:15:34;6.20;99.60
2260;DHT22;333;48.800;9.530;2024-03-25T07:18:00;6.30;99.60
2260;DHT22;333;48.800;9.530;2024-03-25T07:20:26;6.30;99.60
2260;DHT22;333;48.800;9.530;2024-03-25T07:22:52;6.30;99.60
2260;DHT22;333;48.800;9.530;2024-03-25T07:25:18;6.50;99.60
2260;DHT22;333;48.800;9.530;2024-03-25T07:27:44;6.60;99.60
2260;DHT22;333;48.800;9.530;2024-03-25T07:30:10;6.70;99.60
2260;DHT22;333;48.800;9.530;2024-03-25T07:32:37;6.70;99.60
2260;DHT22;333;48.800;9.530;2024-03-25T07:35:04;6.80;99.60
2260;DHT22;333;48.800;9.530;2024-03-25T07:37:30;6.90;99.60
2260;DHT22;333;48.800;9.530;2024-03-25T07:39:56;7.00;99.60
2260;DHT22;333;48.800;9.530;2024-03-25T07:42:22;7.30;99.60
2260;DHT22;333;48.800;9.530;2024-03-25T07:44:48;7.50;99.60
2260;DHT22;333;48.800;9.530;2024-03-25T07:47:14;7.50;99.60
2260;DHT22;333;48.800;9.530;2024-03-25T07:49:41;7.70;99.60
2260;DHT22;333;48.800;9.530;2024-03-25T07:52:07;7.90;99.60
2260;DHT22;333;48.800;9.530;2024-03-25T07:54:33;7.90;99.60
2260;DHT22;333;48.800;9.530;2024-03-25T07:56:59;8.00;99.60
2260;DHT22;333;48.800;9.530;2024-03-25T07:59:25;8.00;99.60
2260;DHT22;333;48.800;9.530;2024-03-25T08:01:51;8.10;99.60
2260;DHT22;333;48.800;9.530;2024-03-25T08:04:17;8.10;99.60
2260;DHT22;333;48.800;9.530;2024-03-25T08:06:44;7.90;99.60
2260;DHT22;333;48.800;9.530;2024-03-25T08:09:10;7.90;99.60
2260;DHT22;333;48.800;9.530;2024-03-25T08:11:36;7.80;99.60
2260;DHT22;333;48.800;9.530;2024-03-25T08:14:02;7.90;99.60
2260;DHT22;333;48.800;9.530;2024-03-25T08:16:28;7.80;99.60
2260;DHT22;333;48.800;9.530;2024-03-25T08:18:54;7.70;99.60
2260;DHT22;333;48.800;9.530;2024-03-25T08:21:20;7.70;99.60
2260;DHT22;333;48.800;9.530;2024-03-25T08:23:47;7.80;99.60
2260;DHT22;333;48.800;9.530;2024-03-25T08:26:13;7.80;99.60
2260;DHT22;333;48.800;9.530;2024-03-25T08:28:39;7.80;99.60
2260;DHT22;333;48.800;9.530;2024-03-25T08:31:05;8.00;99.60
2260;DHT22;333;48.800;9.530;2024-03-25T08:33:31;8.00;99.60
2260;DHT22;333;48.800;9.530;2024-03-25T08:35:57;8.10;99.60
2260;DHT22;333;48.800;9.530;2024-03-25T08:38:23;8.20;99.60
2260;DHT22;333;48.800;9.530;2024-03-25T08:40:51;8.50;99.60
2260;DHT22;333;48.800;9.530;2024-03-25T08:43:17;8.60;99.60
2260;DHT22;333;48.800;9.530;2024-03-25T08:45:43;8.60;99.60
2260;DHT22;333;48.800;9.530;2024-03-25T08:48:09;8.80;99.60
2260;DHT22;333;48.800;9.530;2024-03-25T08:50:35;8.70;99.60
2260;DHT22;333;48.800;9.530;2024-03-25T08:53:01;8.50;99.60
2260;DHT22;333;48.800;9.530;2024-03-25T08:55:27;8.30;99.60
2260;DHT22;333;48.800;9.530;2024-03-25T08:57:54;8.10;99.60
2260;DHT22;333;48.800;9.530;2024-03-25T09:00:21;8.10;99.60
2260;DHT22;333;48.800;9.530;2024-03-25T09:02:47;8.20;99.60
2260;DHT22;333;48.800;9.530;2024-03-25T09:05:13;8.20;99.60
2260;DHT22;333;48.800;9.530;2024-03-25T09:07:39;8.30;99.60
2260;DHT22;333;48.800;9.530;2024-03-25T09:10:05;8.50;99.60
2260;DHT22;333;48.800;9.530;2024-03-25T09:12:49;8.70;99.60
2260;DHT22;333;48.800;9.530;2024-03-25T09:15:17;8.70;99.60
2260;DHT22;333;48.800;9.530;2024-03-25T09:17:43;8.70;99.60
2260;DHT22;333;48.800;9.530;2024-03-25T09:20:09;8.70;99.60
2260;DHT22;333;48.800;9.530;2024-03-25T09:22:35;8.70;99.60
2260;DHT22;333;48.800;9.530;2024-03-25T09:25:01;8.80;99.60
2260;DHT22;333;48.800;9.530;2024-03-25T09:27:27;8.90;99.60
2260;DHT22;333;48.800;9.530;2024-03-25T09:29:53;9.10;99.60
2260;DHT22;333;48.800;9.530;2024-03-25T09:32:21;9.20;99.60
2260;DHT22;333;48.800;9.530;2024-03-25T09:34:47;9.40;99.60
2260;DHT22;333;48.800;9.530;2024-03-25T09:37:13;9.40;99.60
2260;DHT22;333;48.800;9.530;2024-03-25T09:39:39;9.60;99.60
2260;DHT22;333;48.800;9.530;2024-03-25T09:42:07;9.90;99.60
2260;DHT22;333;48.800;9.530;2024-03-25T09:44:33;10.00;99.60
2260;DHT22;333;48.800;9.530;2024-03-25T09:47:00;10.40;99.60
2260;DHT22;333;48.800;9.530;2024-03-25T09:49:28;10.60;99.60
2260;DHT22;333;48.800;9.530;2024-03-25T09:51:56;10.70;99.60
2260;DHT22;333;48.800;9.530;2024-03-25T09:54:22;10.60;99.60
2260;DHT22;333;48.800;9.530;2024-03-25T09:56:49;10.60;99.60
2260;DHT22;333;48.800;9.530;2024-03-25T09:59:16;10.00;99.60
2260;DHT22;333;48.800;9.530;2024-03-25T10:01:42;10.20;99.60
2260;DHT22;333;48.800;9.530;2024-03-25T10:04:08;10.40;99.60
2260;DHT22;333;48.800;9.530;2024-03-25T10:06:36;10.30;99.60
2260;DHT22;333;48.800;9.530;2024-03-25T10:09:05;10.20;99.60
2260;DHT22;333;48.800;9.530;2024-03-25T10:11:31;10.10;99.60
2260;DHT22;333;48.800;9.530;2024-03-25T10:13:58;9.90;99.60
2260;DHT22;333;48.800;9.530;2024-03-25T10:16:24;9.90;99.60
2260;DHT22;333;48.800;9.530;2024-03-25T10:18:49;9.90;99.60
2260;DHT22;333;48.800;9.530;2024-03-25T10:21:19;9.70;99.60
2260;DHT22;333;48.800;9.530;2024-03-25T10:23:47;9.70;99.60
2260;DHT22;333;48.800;9.530;2024-03-25T10:26:26;9.60;99.60
2260;DHT22;333;48.800;9.530;2024-03-25T10:29:00;9.80;99.60
2260;DHT22;333;48.800;9.530;2024-03-25T10:31:26;10.00;99.60
2260;DHT22;333;48.800;9.530;2024-03-25T10:33:52;10.00;99.60
2260;DHT22;333;48.800;9.530;2024-03-25T10:36:20;10.20;99.60
2260;DHT22;333;48.800;9.530;2024-03-25T10:38:49;10.20;99.60
2260;DHT22;333;48.800;9.530;2024-03-25T10:41:18;10.20;99.60
2260;DHT22;333;48.800;9.530;2024-03-25T10:43:46;10.30;99.60
2260;DHT22;333;48.800;9.530;2024-03-25T10:46:17;10.50;99.60
2260;DHT22;333;48.800;9.530;2024-03-25T10:48:48;10.60;98.20
2260;DHT22;333;48.800;9.530;2024-03-25T10:51:20;10.50;98.20
2260;DHT22;333;48.800;9.530;2024-03-25T10:53:49;10.70;98.20
2260;DHT22;333;48.800;9.530;2024-03-25T10:56:20;11.20;95.40
2260;DHT22;333;48.800;9.530;2024-03-25T10:58:48;11.50;94.80
2260;DHT22;333;48.800;9.530;2024-03-25T11:01:16;11.70;99.00
2260;DHT22;333;48.800;9.530;2024-03-25T11:03:43;12.50;95.80
2260;DHT22;333;48.800;9.530;2024-03-25T11:06:09;12.40;96.40
2260;DHT22;333;48.800;9.530;2024-03-25T11:08:36;12.40;97.80
2260;DHT22;333;48.800;9.530;2024-03-25T11:11:05;12.70;97.70
2260;DHT22;333;48.800;9.530;2024-03-25T11:13:31;12.20;97.70
2260;DHT22;333;48.800;9.530;2024-03-25T11:15:58;11.80;98.10
2260;DHT22;333;48.800;9.530;2024-03-25T11:18:24;11.50;98.50
2260;DHT22;333;48.800;9.530;2024-03-25T11:21:00;11.50;97.20
2260;DHT22;333;48.800;9.530;2024-03-25T11:23:35;11.30;98.80
2260;DHT22;333;48.800;9.530;2024-03-25T11:26:01;11.20;99.60
2260;DHT22;333;48.800;9.530;2024-03-25T11:28:29;11.00;99.60
2260;DHT22;333;48.800;9.530;2024-03-25T11:30:55;10.90;99.60
2260;DHT22;333;48.800;9.530;2024-03-25T11:33:22;10.70;99.60
2260;DHT22;333;48.800;9.530;2024-03-25T11:35:48;10.60;99.60
2260;DHT22;333;48.800;9.530;2024-03-25T11:38:15;10.50;99.60
2260;DHT22;333;48.800;9.530;2024-03-25T11:40:43;10.30;99.60
2260;DHT22;333;48.800;9.530;2024-03-25T11:43:10;10.40;99.60
2260;DHT22;333;48.800;9.530;2024-03-25T11:45:37;10.40;99.60
2260;DHT22;333;48.800;9.530;2024-03-25T11:48:05;10.60;99.60
2260;DHT22;333;48.800;9.530;2024-03-25T11:50:34;11.00;99.60
2260;DHT22;333;48.800;9.530;2024-03-25T11:53:04;11.40;99.60
2260;DHT22;333;48.800;9.530;2024-03-25T11:55:30;12.30;98.90
2260;DHT22;333;48.800;9.530;2024-03-25T11:57:56;12.90;97.90
2260;DHT22;333;48.800;9.530;2024-03-25T12:00:24;13.60;94.50
2260;DHT22;333;48.800;9.530;2024-03-25T12:02:52;13.80;91.80
2260;DHT22;333;48.800;9.530;2024-03-25T12:05:18;13.80;92.90
2260;DHT22;333;48.800;9.530;2024-03-25T12:07:44;13.30;91.10
2260;DHT22;333;48.800;9.530;2024-03-25T12:10:10;12.50;94.30
2260;DHT22;333;48.800;9.530;2024-03-25T12:12:55;12.10;95.90
2260;DHT22;333;48.800;9.530;2024-03-25T12:15:21;12.10;95.20
2260;DHT22;333;48.800;9.530;2024-03-25T12:17:47;11.60;92.70
2260;DHT22;333;48.800;9.530;2024-03-25T12:20:15;11.50;94.00
2260;DHT22;333;48.800;9.530;2024-03-25T12:22:41;11.90;94.60
2260;DHT22;333;48.800;9.530;2024-03-25T12:25:08;12.20;91.70
2260;DHT22;333;48.800;9.530;2024-03-25T12:27:35;12.40;92.50
2260;DHT22;333;48.800;9.530;2024-03-25T12:30:02;13.20;91.10
2260;DHT22;333;48.800;9.530;2024-03-25T12:32:36;13.10;91.60
2260;DHT22;333;48.800;9.530;2024-03-25T12:35:03;12.70;92.40
2260;DHT22;333;48.800;9.530;2024-03-25T12:37:31;12.30;94.00
2260;DHT22;333;48.800;9.530;2024-03-25T12:39:57;12.80;94.10
2260;DHT22;333;48.800;9.530;2024-03-25T12:42:24;12.90;91.30
2260;DHT22;333;48.800;9.530;2024-03-25T12:44:50;13.10;93.40
2260;DHT22;333;48.800;9.530;2024-03-25T12:47:16;13.70;90.30
2260;DHT22;333;48.800;9.530;2024-03-25T12:49:42;13.40;89.10
2260;DHT22;333;48.800;9.530;2024-03-25T12:52:08;13.20;88.60
2260;DHT22;333;48.800;9.530;2024-03-25T12:54:35;13.80;91.10
2260;DHT22;333;48.800;9.530;2024-03-25T12:57:01;14.60;84.20
2260;DHT22;333;48.800;9.530;2024-03-25T12:59:27;14.50;86.70
2260;DHT22;333;48.800;9.530;2024-03-25T13:01:54;15.10;84.10
2260;DHT22;333;48.800;9.530;2024-03-25T13:04:20;15.00;83.80
2260;DHT22;333;48.800;9.530;2024-03-25T13:06:45;15.00;84.80
2260;DHT22;333;48.800;9.530;2024-03-25T13:09:11;14.90;83.90
2260;DHT22;333;48.800;9.530;2024-03-25T13:11:39;15.10;82.90
2260;DHT22;333;48.800;9.530;2024-03-25T13:14:05;15.20;83.00
2260;DHT22;333;48.800;9.530;2024-03-25T13:16:31;15.20;84.20
2260;DHT22;333;48.800;9.530;2024-03-25T13:18:57;15.20;83.00
2260;DHT22;333;48.800;9.530;2024-03-25T13:21:24;14.80;82.70
2260;DHT22;333;48.800;9.530;2024-03-25T13:23:50;13.90;85.30
2260;DHT22;333;48.800;9.530;2024-03-25T13:26:16;13.40;85.50
2260;DHT22;333;48.800;9.530;2024-03-25T13:28:43;13.50;85.60
2260;DHT22;333;48.800;9.530;2024-03-25T13:31:09;13.90;84.90
2260;DHT22;333;48.800;9.530;2024-03-25T13:33:35;13.90;84.80
2260;DHT22;333;48.800;9.530;2024-03-25T13:36:02;13.50;86.90
2260;DHT22;333;48.800;9.530;2024-03-25T13:38:28;13.40;86.10
2260;DHT22;333;48.800;9.530;2024-03-25T13:40:54;13.20;86.10
2260;DHT22;333;48.800;9.530;2024-03-25T13:43:20;13.10;86.00
2260;DHT22;333;48.800;9.530;2024-03-25T13:45:48;14.00;84.70
2260;DHT22;333;48.800;9.530;2024-03-25T13:48:15;14.50;82.30
2260;DHT22;333;48.800;9.530;2024-03-25T13:50:41;15.50;81.30
2260;DHT22;333;48.800;9.530;2024-03-25T13:53:07;15.80;80.70
2260;DHT22;333;48.800;9.530;2024-03-25T13:55:33;16.20;79.80
2260;DHT22;333;48.800;9.530;2024-03-25T13:57:59;16.20;79.50
2260;DHT22;333;48.800;9.530;2024-03-25T14:00:25;15.80;79.60
2260;DHT22;333;48.800;9.530;2024-03-25T14:02:53;15.50;81.40
2260;DHT22;333;48.800;9.530;2024-03-25T14:05:19;15.30;81.50
2260;DHT22;333;48.800;9.530;2024-03-25T14:07:45;15.10;80.10
2260;DHT22;333;48.800;9.530;2024-03-25T14:10:11;15.00;83.20
2260;DHT22;333;48.800;9.530;2024-03-25T14:12:37;14.90;81.80
2260;DHT22;333;48.800;9.530;2024-03-25T14:15:04;15.60;82.30
2260;DHT22;333;48.800;9.530;2024-03-25T14:17:30;16.30;79.60
2260;DHT22;333;48.800;9.530;2024-03-25T14:19:57;16.80;79.00
2260;DHT22;333;48.800;9.530;2024-03-25T14:22:23;16.20;78.30
2260;DHT22;333;48.800;9.530;2024-03-25T14:24:49;15.60;80.60
2260;DHT22;333;48.800;9.530;2024-03-25T14:27:15;15.50;78.90
2260;DHT22;333;48.800;9.530;2024-03-25T14:29:41;16.20;78.70
2260;DHT22;333;48.800;9.530;2024-03-25T14:32:08;16.20;77.60
2260;DHT22;333;48.800;9.530;2024-03-25T14:34:34;16.50;78.00
2260;DHT22;333;48.800;9.530;2024-03-25T14:37:01;16.60;77.00
2260;DHT22;333;48.800;9.530;2024-03-25T14:39:27;16.80;75.90
2260;DHT22;333;48.800;9.530;2024-03-25T14:41:53;16.00;75.70
2260;DHT22;333;48.800;9.530;2024-03-25T14:44:19;15.90;76.20
2260;DHT22;333;48.800;9.530;2024-03-25T14:46:45;16.00;76.70
2260;DHT22;333;48.800;9.530;2024-03-25T14:49:11;15.60;78.10
2260;DHT22;333;48.800;9.530;2024-03-25T14:51:37;15.90;77.60
2260;DHT22;333;48.800;9.530;2024-03-25T14:54:05;15.80;77.10
2260;DHT22;333;48.800;9.530;2024-03-25T14:56:31;15.60;77.30
2260;DHT22;333;48.800;9.530;2024-03-25T14:58:57;15.70;79.10
2260;DHT22;333;48.800;9.530;2024-03-25T15:01:23;15.90;77.20
2260;DHT22;333;48.800;9.530;2024-03-25T15:03:49;16.40;76.80
2260;DHT22;333;48.800;9.530;2024-03-25T15:06:15;16.80;76.40
2260;DHT22;333;48.800;9.530;2024-03-25T15:08:41;17.00;75.50
2260;DHT22;333;48.800;9.530;2024-03-25T15:11:09;16.50;76.50
2260;DHT22;333;48.800;9.530;2024-03-25T15:13:35;16.20;78.20
2260;DHT22;333;48.800;9.530;2024-03-25T15:16:03;16.50;76.50
2260;DHT22;333;48.800;9.530;2024-03-25T15:18:30;16.60;77.40
2260;DHT22;333;48.800;9.530;2024-03-25T15:21:02;16.10;77.60
2260;DHT22;333;48.800;9.530;2024-03-25T15:23:29;16.30;78.20
2260;DHT22;333;48.800;9.530;2024-03-25T15:25:55;16.40;77.50
2260;DHT22;333;48.800;9.530;2024-03-25T15:28:22;16.40;76.90
2260;DHT22;333;48.800;9.530;2024-03-25T15:30:48;16.70;77.50
2260;DHT22;333;48.800;9.530;2024-03-25T15:33:14;15.80;77.60
2260;DHT22;333;48.800;9.530;2024-03-25T15:35:40;15.60;77.50
2260;DHT22;333;48.800;9.530;2024-03-25T15:38:06;15.30;77.60
2260;DHT22;333;48.800;9.530;2024-03-25T15:40:32;15.70;78.40
2260;DHT22;333;48.800;9.530;2024-03-25T15:42:58;16.30;77.10
2260;DHT22;333;48.800;9.530;2024-03-25T15:45:26;16.30;75.90
2260;DHT22;333;48.800;9.530;2024-03-25T15:47:52;15.70;75.80
2260;DHT22;333;48.800;9.530;2024-03-25T15:50:18;15.20;77.50
2260;DHT22;333;48.800;9.530;2024-03-25T15:52:44;15.10;78.00
2260;DHT22;333;48.800;9.530;2024-03-25T15:55:10;15.90;76.70
2260;DHT22;333;48.800;9.530;2024-03-25T15:57:36;16.00;75.50
2260;DHT22;333;48.800;9.530;2024-03-25T16:00:02;16.00;74.60
2260;DHT22;333;48.800;9.530;2024-03-25T16:02:30;16.30;73.40
2260;DHT22;333;48.800;9.530;2024-03-25T16:04:57;16.70;72.20
2260;DHT22;333;48.800;9.530;2024-03-25T16:07:23;16.60;71.80
2260;DHT22;333;48.800;9.530;2024-03-25T16:09:49;16.40;71.80
2260;DHT22;333;48.800;9.530;2024-03-25T16:12:15;16.10;71.50
2260;DHT22;333;48.800;9.530;2024-03-25T16:14:41;16.20;71.40
2260;DHT22;333;48.800;9.530;2024-03-25T16:17:07;16.60;71.40
2260;DHT22;333;48.800;9.530;2024-03-25T16:19:34;17.40;69.50
2260;DHT22;333;48.800;9.530;2024-03-25T16:22:00;17.00;67.50
2260;DHT22;333;48.800;9.530;2024-03-25T16:24:26;16.90;67.60